Time;durP1;ratioP1;P1;durP2;ratioP2;P2;SDS_P1;SDS_P2;PMS_P1;PMS_P2;Temp;Humidity;BMP_temperature;BMP_pressure;BME280_temperature;BME280_humidity;BME280_pressure;Samples;Min_cycle;Max_cycle;Signal;HPM_P1;HPM_P2
2022/11/06 00:00:01;;;;;;;3.38;2.35;;;;;;;;;;10430408;28;20674;-73
2022/11/06 00:10:23;;;;;;;3.17;2.33;;;;;;;;;;10449619;28;20588;-75
2022/11/06 00:15:24;;;;;;;4.25;2.83;;;;;;;;;;10451225;28;20640;-74
2022/11/06 00:20:25;;;;;;;7.57;2.75;;;;;;;;;;10452795;28;20272;-75
2022/11/06 00:25:26;;;;;;;4.00;2.47;;;;;;;;;;10411141;28;20673;-75
2022/11/06 00:30:27;;;;;;;4.25;2.20;;;;;;;;;;10426605;28;20253;-75
2022/11/06 00:35:28;;;;;;;6.43;2.92;;;;;;;;;;10425772;28;20242;-75
2022/11/06 00:40:30;;;;;;;6.93;2.25;;;;;;;;;;10450881;28;20215;-75
2022/11/06 00:45:31;;;;;;;2.88;2.67;;;;;;;;;;10447215;28;20233;-75
2022/11/06 00:50:32;;;;;;;7.35;3.00;;;;;;;;;;10425988;28;20215;-75
2022/11/06 00:55:33;;;;;;;5.53;3.05;;;;;;;;;;10449537;28;20313;-76
2022/11/06 01:00:35;;;;;;;6.63;2.50;;;;;;;;;;10426892;28;20251;-75
2022/11/06 01:05:36;;;;;;;3.42;2.17;;;;;;;;;;10442608;28;20207;-76
2022/11/06 01:10:37;;;;;;;2.47;2.28;;;;;;;;;;10424983;28;20207;-75
2022/11/06 01:15:38;;;;;;;2.28;2.17;;;;;;;;;;10443991;28;20269;-75
2022/11/06 01:20:39;;;;;;;2.33;2.00;;;;;;;;;;10446748;28;20785;-75
2022/11/06 01:25:40;;;;;;;2.63;2.38;;;;;;;;;;10447943;28;20206;-75
2022/11/06 01:30:41;;;;;;;6.05;2.30;;;;;;;;;;10418666;28;20759;-75
2022/11/06 01:35:46;;;;;;;2.25;2.15;;;;;;;;;;10447124;28;20222;-75
2022/11/06 01:40:48;;;;;;;1.92;1.83;;;;;;;;;;10441580;28;20675;-75
2022/11/06 01:45:50;;;;;;;2.33;2.13;;;;;;;;;;10405057;28;20297;-74
2022/11/06 01:50:54;;;;;;;7.68;2.80;;;;;;;;;;10443627;28;20223;-74
2022/11/06 01:55:58;;;;;;;2.13;1.95;;;;;;;;;;10447537;28;20285;-75
2022/11/06 02:00:59;;;;;;;3.78;2.65;;;;;;;;;;10419186;28;20271;-75
2022/11/06 02:06:01;;;;;;;2.28;1.73;;;;;;;;;;10445164;28;20295;-75
2022/11/06 02:11:03;;;;;;;3.00;2.10;;;;;;;;;;10426097;28;20303;-75
2022/11/06 02:16:04;;;;;;;2.40;2.28;;;;;;;;;;10437116;28;20703;-75
2022/11/06 02:21:08;;;;;;;2.33;2.17;;;;;;;;;;10409347;28;20227;-75
2022/11/06 02:26:09;;;;;;;2.45;2.25;;;;;;;;;;10384476;28;20265;-75
2022/11/06 02:31:15;;;;;;;4.30;2.88;;;;;;;;;;10397433;28;20239;-75
2022/11/06 02:36:18;;;;;;;2.65;2.42;;;;;;;;;;10384211;28;20687;-74
2022/11/06 02:41:22;;;;;;;4.75;2.22;;;;;;;;;;10418983;28;20212;-75
2022/11/06 02:46:29;;;;;;;4.07;2.83;;;;;;;;;;10402444;28;20621;-75
2022/11/06 02:51:31;;;;;;;2.65;2.47;;;;;;;;;;10376453;28;20207;-75
2022/11/06 02:56:34;;;;;;;2.38;2.15;;;;;;;;;;10379445;28;20256;-75
2022/11/06 03:01:39;;;;;;;3.47;2.92;;;;;;;;;;10399301;28;20306;-74
2022/11/06 03:06:49;;;;;;;4.57;3.50;;;;;;;;;;10400039;28;20200;-75
2022/11/06 03:11:53;;;;;;;4.07;2.80;;;;;;;;;;10401645;28;20227;-74
2022/11/06 03:16:59;;;;;;;3.97;3.05;;;;;;;;;;10410144;28;20230;-75
2022/11/06 03:22:15;;;;;;;3.35;3.08;;;;;;;;;;10440593;28;20227;-75
2022/11/06 03:27:34;;;;;;;7.72;4.30;;;;;;;;;;10415900;28;20207;-74
2022/11/06 03:32:51;;;;;;;5.95;3.60;;;;;;;;;;10407840;28;20214;-75
2022/11/06 03:38:01;;;;;;;5.65;3.80;;;;;;;;;;10404131;28;20306;-75
2022/11/06 03:43:04;;;;;;;4.65;3.45;;;;;;;;;;10398963;28;20215;-74
2022/11/06 03:48:24;;;;;;;3.28;3.08;;;;;;;;;;10419990;28;20214;-75
2022/11/06 03:53:25;;;;;;;5.50;3.58;;;;;;;;;;10443144;28;20202;-75
2022/11/06 03:58:28;;;;;;;9.38;4.20;;;;;;;;;;10441098;28;20210;-74
2022/11/06 04:03:32;;;;;;;7.85;3.78;;;;;;;;;;10413637;28;20245;-74
2022/11/06 04:13:57;;;;;;;4.75;4.22;;;;;;;;;;10431660;28;20219;-75
2022/11/06 04:18:59;;;;;;;5.75;3.78;;;;;;;;;;10442153;28;20234;-76
2022/11/06 04:30:17;;;;;;;6.18;3.92;;;;;;;;;;10425247;28;20217;-74
2022/11/06 04:35:21;;;;;;;4.45;3.92;;;;;;;;;;10304046;28;20755;-75
2022/11/06 04:40:43;;;;;;;7.00;3.63;;;;;;;;;;10301793;28;20237;-75
2022/11/06 04:45:46;;;;;;;4.53;3.92;;;;;;;;;;10307016;28;20268;-75
2022/11/06 04:50:50;;;;;;;4.68;4.18;;;;;;;;;;10288589;28;20232;-74
2022/11/06 04:55:55;;;;;;;5.35;4.40;;;;;;;;;;10299130;28;20223;-74
2022/11/06 05:00:56;;;;;;;4.38;3.97;;;;;;;;;;10315165;28;20212;-75
2022/11/06 05:05:57;;;;;;;5.68;4.97;;;;;;;;;;10413197;28;20211;-74
2022/11/06 05:10:59;;;;;;;5.85;4.03;;;;;;;;;;10433782;28;20356;-75
2022/11/06 05:16:00;;;;;;;4.72;3.75;;;;;;;;;;10440233;28;20698;-74
2022/11/06 05:26:22;;;;;;;4.18;3.55;;;;;;;;;;10424122;28;20216;-74
2022/11/06 05:31:23;;;;;;;8.55;4.45;;;;;;;;;;10443959;28;20231;-74
2022/11/06 05:36:24;;;;;;;10.70;4.43;;;;;;;;;;10447334;28;20221;-74
2022/11/06 05:41:25;;;;;;;7.60;4.78;;;;;;;;;;10446599;28;20223;-75
2022/11/06 05:46:27;;;;;;;4.82;4.32;;;;;;;;;;10432730;28;20209;-74
2022/11/06 05:51:28;;;;;;;5.07;3.65;;;;;;;;;;10443925;28;20333;-74
2022/11/06 05:56:29;;;;;;;5.20;3.85;;;;;;;;;;10459927;28;20238;-75
2022/11/06 06:01:30;;;;;;;5.85;4.68;;;;;;;;;;10451540;28;20245;-74
2022/11/06 06:06:31;;;;;;;4.55;4.13;;;;;;;;;;10442735;28;20210;-75
2022/11/06 06:11:33;;;;;;;6.45;4.22;;;;;;;;;;10443724;28;20305;-75
2022/11/06 06:16:34;;;;;;;4.75;3.65;;;;;;;;;;10442175;28;20222;-74
2022/11/06 06:21:35;;;;;;;7.07;4.15;;;;;;;;;;10455415;28;20246;-74
2022/11/06 06:26:37;;;;;;;8.05;4.82;;;;;;;;;;10443277;28;20211;-75
2022/11/06 06:31:39;;;;;;;7.10;4.28;;;;;;;;;;10440902;28;20238;-74
2022/11/06 06:36:40;;;;;;;4.15;3.80;;;;;;;;;;10441442;28;20585;-75
2022/11/06 06:41:41;;;;;;;8.95;4.85;;;;;;;;;;10443479;28;20309;-74
2022/11/06 06:46:42;;;;;;;4.38;3.97;;;;;;;;;;10443348;28;20279;-74
2022/11/06 06:51:44;;;;;;;6.60;4.43;;;;;;;;;;10455987;28;20210;-75
2022/11/06 06:56:45;;;;;;;4.20;3.83;;;;;;;;;;10445210;28;20206;-74
2022/11/06 07:01:47;;;;;;;6.90;4.07;;;;;;;;;;10440685;28;20214;-75
2022/11/06 07:06:48;;;;;;;4.32;3.67;;;;;;;;;;10440499;28;21048;-75
2022/11/06 07:11:49;;;;;;;8.20;4.72;;;;;;;;;;10438153;28;20217;-76
2022/11/06 07:16:51;;;;;;;6.25;4.28;;;;;;;;;;10449474;28;20234;-74
2022/11/06 07:21:52;;;;;;;4.43;4.03;;;;;;;;;;10437980;28;20223;-76
2022/11/06 07:26:53;;;;;;;3.70;3.40;;;;;;;;;;10439958;28;20682;-74
2022/11/06 07:31:54;;;;;;;4.75;4.28;;;;;;;;;;10451549;28;20823;-74
2022/11/06 07:36:55;;;;;;;8.73;4.65;;;;;;;;;;10444750;28;20250;-77
2022/11/06 07:41:57;;;;;;;5.05;3.80;;;;;;;;;;10436401;28;20219;-72
2022/11/06 07:46:58;;;;;;;6.28;3.80;;;;;;;;;;10439631;28;20214;-70
2022/11/06 07:51:59;;;;;;;8.30;6.15;;;;;;;;;;10440426;28;20586;-71
2022/11/06 07:57:00;;;;;;;3.97;3.72;;;;;;;;;;10459619;28;20823;-69
2022/11/06 08:02:01;;;;;;;8.63;6.68;;;;;;;;;;10450682;28;20899;-77
2022/11/06 08:07:02;;;;;;;4.57;3.13;;;;;;;;;;10425942;28;20199;-74
2022/11/06 08:12:04;;;;;;;3.92;3.63;;;;;;;;;;10442016;28;20664;-78
2022/11/06 08:17:05;;;;;;;3.05;2.40;;;;;;;;;;10460293;28;20278;-77
2022/11/06 08:22:07;;;;;;;2.92;2.22;;;;;;;;;;10444128;28;21249;-76
2022/11/06 08:27:08;;;;;;;3.08;2.15;;;;;;;;;;10422814;28;20231;-77
2022/11/06 08:32:10;;;;;;;3.85;2.45;;;;;;;;;;10457923;28;20741;-68
2022/11/06 08:37:11;;;;;;;7.72;2.72;;;;;;;;;;10437998;28;20211;-66
2022/11/06 08:42:12;;;;;;;3.13;2.00;;;;;;;;;;10440283;28;20226;-68
2022/11/06 08:47:14;;;;;;;2.28;2.17;;;;;;;;;;10439811;28;20307;-67
2022/11/06 08:52:15;;;;;;;2.05;1.85;;;;;;;;;;10436318;28;20710;-67
2022/11/06 08:57:16;;;;;;;4.22;2.65;;;;;;;;;;10454936;28;20214;-70
2022/11/06 09:02:18;;;;;;;1.95;1.73;;;;;;;;;;10449366;28;20755;-72
2022/11/06 09:07:19;;;;;;;1.75;1.65;;;;;;;;;;10414686;28;20288;-73
2022/11/06 09:12:20;;;;;;;2.45;1.75;;;;;;;;;;10441106;28;20214;-74
2022/11/06 09:17:23;;;;;;;6.60;2.20;;;;;;;;;;10437821;28;20226;-76
2022/11/06 09:22:24;;;;;;;5.07;1.45;;;;;;;;;;10452020;28;20222;-78
2022/11/06 09:27:25;;;;;;;1.67;1.00;;;;;;;;;;10413196;28;20231;-77
2022/11/06 09:32:26;;;;;;;4.03;1.55;;;;;;;;;;10454189;28;20239;-76
2022/11/06 09:37:27;;;;;;;1.75;1.42;;;;;;;;;;10448573;28;20230;-77
2022/11/06 09:42:47;;;;;;;1.23;1.10;;;;;;;;;;10440800;28;20685;-77
2022/11/06 09:47:52;;;;;;;1.48;1.20;;;;;;;;;;10438106;28;20210;-79
2022/11/06 09:52:57;;;;;;;1.30;1.20;;;;;;;;;;10439399;28;20304;-77
2022/11/06 09:58:04;;;;;;;2.47;1.40;;;;;;;;;;10442577;28;20222;-76
2022/11/06 10:03:12;;;;;;;1.15;1.00;;;;;;;;;;10439553;28;20222;-75
2022/11/06 10:08:25;;;;;;;1.17;1.05;;;;;;;;;;10420619;28;20235;-79
2022/11/06 10:13:35;;;;;;;3.53;0.90;;;;;;;;;;10438319;28;20753;-73
2022/11/06 10:18:45;;;;;;;1.85;0.90;;;;;;;;;;10424482;28;20265;-73
2022/11/06 10:23:47;;;;;;;2.15;0.82;;;;;;;;;;10436065;28;20227;-73
2022/11/06 10:28:57;;;;;;;0.82;0.77;;;;;;;;;;10412822;28;20824;-70
2022/11/06 10:34:01;;;;;;;1.67;1.13;;;;;;;;;;10429985;28;20223;-74
2022/11/06 10:39:04;;;;;;;1.92;0.98;;;;;;;;;;10429339;28;20268;-73
2022/11/06 10:44:14;;;;;;;3.53;0.98;;;;;;;;;;10409411;28;20232;-72
2022/11/06 10:49:22;;;;;;;2.38;1.20;;;;;;;;;;10432688;28;20214;-72
2022/11/06 10:54:26;;;;;;;3.50;0.70;;;;;;;;;;10439485;28;20234;-72
2022/11/06 10:59:27;;;;;;;2.08;0.80;;;;;;;;;;10414790;28;20720;-72
2022/11/06 11:04:31;;;;;;;2.53;0.57;;;;;;;;;;10430400;28;20214;-74
2022/11/06 11:09:33;;;;;;;0.63;0.63;;;;;;;;;;10432513;28;20690;-74
2022/11/06 11:14:34;;;;;;;3.05;1.05;;;;;;;;;;10429725;28;20221;-74
2022/11/06 11:19:37;;;;;;;2.38;0.65;;;;;;;;;;10401976;28;20223;-73
2022/11/06 11:24:57;;;;;;;1.85;0.63;;;;;;;;;;10387786;28;20219;-74
2022/11/06 11:29:58;;;;;;;1.50;0.70;;;;;;;;;;10385220;28;20241;-74
2022/11/06 11:34:59;;;;;;;1.58;0.63;;;;;;;;;;10399544;28;20219;-74
2022/11/06 11:40:22;;;;;;;1.65;0.45;;;;;;;;;;10399227;28;20358;-74
2022/11/06 11:45:23;;;;;;;1.80;0.77;;;;;;;;;;10401484;28;20717;-74
2022/11/06 11:50:26;;;;;;;0.68;0.68;;;;;;;;;;10397985;28;21037;-74
2022/11/06 11:55:28;;;;;;;0.77;0.77;;;;;;;;;;10398809;28;20218;-74
2022/11/06 12:00:30;;;;;;;0.75;0.47;;;;;;;;;;10399240;28;20215;-75
2022/11/06 12:05:33;;;;;;;2.30;1.15;;;;;;;;;;10418224;28;20338;-75
2022/11/06 12:10:43;;;;;;;0.65;0.65;;;;;;;;;;10401331;28;20358;-74
2022/11/06 12:15:54;;;;;;;1.40;0.45;;;;;;;;;;10423350;28;20226;-73
2022/11/06 12:20:58;;;;;;;1.08;0.60;;;;;;;;;;10441872;28;20226;-74
2022/11/06 12:26:04;;;;;;;1.10;0.43;;;;;;;;;;10440696;28;20222;-74
2022/11/06 12:31:09;;;;;;;4.70;0.95;;;;;;;;;;10449767;28;20239;-73
2022/11/06 12:36:13;;;;;;;3.25;0.70;;;;;;;;;;10442310;28;21006;-74
2022/11/06 12:41:22;;;;;;;2.05;0.50;;;;;;;;;;10440618;28;20572;-74
2022/11/06 12:46:34;;;;;;;0.57;0.57;;;;;;;;;;10399368;28;20216;-75
2022/11/06 12:51:41;;;;;;;2.33;0.50;;;;;;;;;;10433729;28;20219;-74
2022/11/06 12:56:55;;;;;;;1.83;0.60;;;;;;;;;;10438950;28;20697;-73
2022/11/06 13:02:02;;;;;;;0.85;0.50;;;;;;;;;;10403789;28;20938;-74
2022/11/06 13:07:12;;;;;;;2.05;0.60;;;;;;;;;;10429614;28;20211;-75
2022/11/06 13:12:16;;;;;;;0.95;0.80;;;;;;;;;;10429160;28;20230;-73
2022/11/06 13:17:21;;;;;;;0.50;0.50;;;;;;;;;;10441765;28;20376;-74
2022/11/06 13:22:43;;;;;;;1.75;0.60;;;;;;;;;;10428305;28;20643;-73
2022/11/06 13:28:01;;;;;;;3.72;0.60;;;;;;;;;;10430925;28;20260;-73
2022/11/06 13:33:03;;;;;;;0.95;0.40;;;;;;;;;;10448760;28;20698;-73
2022/11/06 13:38:06;;;;;;;0.95;0.50;;;;;;;;;;10438301;28;20310;-72
2022/11/06 13:43:12;;;;;;;2.90;0.70;;;;;;;;;;10424835;28;20219;-73
2022/11/06 13:48:17;;;;;;;0.75;0.75;;;;;;;;;;10438716;28;20612;-73
2022/11/06 13:53:40;;;;;;;0.52;0.40;;;;;;;;;;10455252;28;20207;-74
2022/11/06 13:58:59;;;;;;;1.70;0.90;;;;;;;;;;10443756;28;20217;-74
2022/11/06 14:04:21;;;;;;;2.30;0.98;;;;;;;;;;10441446;28;20230;-73
2022/11/06 14:09:24;;;;;;;2.38;0.90;;;;;;;;;;10438417;28;20206;-74
2022/11/06 14:14:26;;;;;;;1.20;1.10;;;;;;;;;;10452598;28;20296;-74
2022/11/06 14:19:29;;;;;;;2.55;0.70;;;;;;;;;;10439298;28;20231;-74
2022/11/06 14:24:34;;;;;;;2.65;0.93;;;;;;;;;;10430009;28;20263;-74
2022/11/06 14:29:35;;;;;;;3.53;1.00;;;;;;;;;;10436796;28;20249;-73
2022/11/06 14:34:37;;;;;;;1.27;0.80;;;;;;;;;;10416165;28;20225;-73
2022/11/06 14:39:53;;;;;;;1.55;0.63;;;;;;;;;;10416248;28;20223;-76
2022/11/06 14:44:55;;;;;;;2.78;1.17;;;;;;;;;;10416357;28;20210;-72
2022/11/06 14:49:58;;;;;;;1.75;1.10;;;;;;;;;;10434785;28;20225;-71
2022/11/06 14:55:01;;;;;;;1.85;0.60;;;;;;;;;;10436792;28;20332;-74
2022/11/06 15:00:03;;;;;;;1.75;0.90;;;;;;;;;;10432950;28;20207;-71
2022/11/06 15:05:06;;;;;;;1.45;0.80;;;;;;;;;;10450614;28;20206;-72
2022/11/06 15:10:26;;;;;;;1.08;1.02;;;;;;;;;;10435784;28;20767;-71
2022/11/06 15:15:28;;;;;;;13.50;7.60;;;;;;;;;;10407506;28;20206;-70
2022/11/06 15:20:30;;;;;;;7.65;6.88;;;;;;;;;;10410774;28;20231;-75
2022/11/06 15:25:33;;;;;;;0.98;0.98;;;;;;;;;;10436518;28;20264;-74
2022/11/06 15:30:51;;;;;;;2.33;2.10;;;;;;;;;;10434713;28;20218;-74
2022/11/06 15:35:54;;;;;;;3.03;2.90;;;;;;;;;;10413799;28;20218;-73
2022/11/06 15:40:55;;;;;;;2.45;1.30;;;;;;;;;;10433923;28;20218;-74
2022/11/06 15:46:08;;;;;;;2.08;1.98;;;;;;;;;;10437039;28;20219;-74
2022/11/06 15:51:24;;;;;;;3.65;1.77;;;;;;;;;;10453844;28;20783;-74
2022/11/06 15:56:30;;;;;;;3.08;1.60;;;;;;;;;;10420052;28;20213;-74
2022/11/06 16:01:32;;;;;;;2.38;2.30;;;;;;;;;;10454407;28;20296;-74
2022/11/06 16:06:33;;;;;;;4.13;3.70;;;;;;;;;;10453938;28;20207;-74
2022/11/06 16:11:36;;;;;;;4.25;3.97;;;;;;;;;;10453386;28;20273;-74
2022/11/06 16:16:41;;;;;;;1.67;1.58;;;;;;;;;;10448526;28;20249;-74
2022/11/06 16:21:48;;;;;;;3.53;1.85;;;;;;;;;;10399317;28;20222;-74
2022/11/06 16:26:50;;;;;;;2.78;2.00;;;;;;;;;;10437280;28;20218;-75
2022/11/06 16:31:59;;;;;;;8.27;1.42;;;;;;;;;;10436302;28;20279;-74
2022/11/06 16:37:02;;;;;;;2.10;1.23;;;;;;;;;;10439776;28;20296;-74
2022/11/06 16:42:18;;;;;;;2.10;2.00;;;;;;;;;;10420626;28;20222;-73
2022/11/06 16:47:21;;;;;;;3.35;2.25;;;;;;;;;;10413057;28;20272;-73
2022/11/06 16:52:33;;;;;;;2.03;2.03;;;;;;;;;;10439099;28;20179;-73
2022/11/06 16:57:43;;;;;;;1.95;1.85;;;;;;;;;;10413706;28;20222;-73
2022/11/06 17:02:49;;;;;;;2.10;1.52;;;;;;;;;;10444445;28;20229;-73
2022/11/06 17:08:04;;;;;;;4.10;1.95;;;;;;;;;;10424678;28;20218;-72
2022/11/06 17:13:12;;;;;;;2.05;1.40;;;;;;;;;;10434577;28;20231;-73
2022/11/06 17:18:15;;;;;;;1.73;1.52;;;;;;;;;;10413673;28;20226;-74
2022/11/06 17:23:16;;;;;;;2.22;1.40;;;;;;;;;;10419518;28;20222;-74
2022/11/06 17:28:18;;;;;;;1.98;1.88;;;;;;;;;;10440338;28;20203;-74
2022/11/06 17:33:19;;;;;;;1.80;1.70;;;;;;;;;;10417723;28;20261;-73
2022/11/06 17:38:20;;;;;;;1.40;1.40;;;;;;;;;;10446202;28;20749;-74
2022/11/06 17:43:21;;;;;;;2.97;1.60;;;;;;;;;;10418707;28;20211;-73
2022/11/06 17:48:22;;;;;;;3.38;2.67;;;;;;;;;;10440593;28;20222;-72
2022/11/06 17:53:24;;;;;;;1.83;1.60;;;;;;;;;;10432782;28;21130;-73
2022/11/06 17:58:25;;;;;;;2.22;2.13;;;;;;;;;;10437571;28;20233;-73
2022/11/06 18:03:26;;;;;;;3.88;2.33;;;;;;;;;;10409511;28;20222;-73
2022/11/06 18:08:27;;;;;;;2.00;1.88;;;;;;;;;;10411061;28;20238;-72
2022/11/06 18:13:30;;;;;;;2.30;1.63;;;;;;;;;;10433026;28;20218;-73
2022/11/06 18:18:31;;;;;;;1.80;1.70;;;;;;;;;;10413661;28;20274;-75
2022/11/06 18:23:32;;;;;;;3.15;2.38;;;;;;;;;;10408026;28;20239;-71
2022/11/06 18:28:33;;;;;;;3.22;3.03;;;;;;;;;;10400998;28;20761;-72
2022/11/06 18:33:34;;;;;;;2.67;2.47;;;;;;;;;;10411467;28;20214;-73
2022/11/06 18:38:36;;;;;;;2.80;2.38;;;;;;;;;;10392964;28;20212;-72
2022/11/06 18:43:37;;;;;;;2.53;2.33;;;;;;;;;;10391912;28;21025;-75
2022/11/06 18:48:39;;;;;;;2.33;2.03;;;;;;;;;;10389886;28;20704;-74
2022/11/06 18:53:40;;;;;;;3.10;2.28;;;;;;;;;;10408112;28;20337;-75
2022/11/06 18:58:42;;;;;;;3.15;2.60;;;;;;;;;;10380951;28;20273;-74
2022/11/06 19:03:43;;;;;;;3.83;2.65;;;;;;;;;;10399075;28;20211;-72
2022/11/06 19:08:44;;;;;;;2.85;2.65;;;;;;;;;;10397861;28;20705;-71
2022/11/06 19:13:46;;;;;;;5.22;3.05;;;;;;;;;;10393797;28;20242;-73
2022/11/06 19:18:49;;;;;;;3.10;2.85;;;;;;;;;;10408280;28;20318;-74
2022/11/06 19:23:51;;;;;;;3.80;2.92;;;;;;;;;;10423055;28;20245;-71
2022/11/06 19:28:53;;;;;;;3.92;3.38;;;;;;;;;;10429532;28;20823;-72
2022/11/06 19:33:58;;;;;;;3.58;3.33;;;;;;;;;;10401997;28;20225;-73
2022/11/06 19:38:59;;;;;;;3.25;3.00;;;;;;;;;;10410101;28;20219;-69
2022/11/06 19:44:00;;;;;;;3.60;3.35;;;;;;;;;;10428822;28;20291;-68
2022/11/06 19:49:02;;;;;;;4.50;3.38;;;;;;;;;;10420771;28;20609;-70
2022/11/06 19:54:08;;;;;;;3.60;3.40;;;;;;;;;;10432191;28;20218;-69
2022/11/06 19:59:10;;;;;;;4.18;3.78;;;;;;;;;;10441215;28;20211;-69
2022/11/06 20:04:12;;;;;;;4.03;3.80;;;;;;;;;;10418729;28;20594;-71
2022/11/06 20:09:13;;;;;;;5.95;3.40;;;;;;;;;;10451370;28;20329;-68
2022/11/06 20:14:17;;;;;;;3.10;2.90;;;;;;;;;;10453420;28;20238;-69
2022/11/06 20:19:18;;;;;;;7.78;3.20;;;;;;;;;;10437135;28;20238;-69
2022/11/06 20:24:19;;;;;;;3.65;3.45;;;;;;;;;;10437139;28;20254;-70
2022/11/06 20:29:21;;;;;;;3.65;2.92;;;;;;;;;;10436539;28;20233;-71
2022/11/06 20:34:22;;;;;;;2.92;2.75;;;;;;;;;;10452650;28;20210;-71
2022/11/06 20:39:23;;;;;;;4.63;2.83;;;;;;;;;;10455843;28;20276;-74
2022/11/06 20:44:24;;;;;;;3.33;3.03;;;;;;;;;;10417663;28;20575;-69
2022/11/06 20:49:25;;;;;;;2.55;2.45;;;;;;;;;;10450645;28;20232;-72
2022/11/06 20:54:26;;;;;;;3.17;2.88;;;;;;;;;;10436754;28;20207;-73
2022/11/06 20:59:27;;;;;;;3.90;2.80;;;;;;;;;;10416905;28;20218;-73
2022/11/06 21:04:29;;;;;;;3.05;2.95;;;;;;;;;;10417530;28;20249;-76
2022/11/06 21:09:30;;;;;;;3.17;2.97;;;;;;;;;;10421384;28;20265;-73
2022/11/06 21:14:31;;;;;;;5.05;2.70;;;;;;;;;;10451774;28;20231;-72
2022/11/06 21:19:35;;;;;;;3.63;3.00;;;;;;;;;;10419508;28;20702;-70
2022/11/06 21:24:36;;;;;;;3.30;3.00;;;;;;;;;;10431763;28;20222;-72
2022/11/06 21:29:37;;;;;;;3.25;3.05;;;;;;;;;;10436788;28;20210;-73
2022/11/06 21:34:38;;;;;;;3.53;3.33;;;;;;;;;;10449326;28;20719;-68
2022/11/06 21:39:39;;;;;;;3.40;3.15;;;;;;;;;;10417126;28;21553;-68
2022/11/06 21:44:41;;;;;;;3.45;3.15;;;;;;;;;;10435331;28;20647;-69
2022/11/06 21:49:52;;;;;;;3.35;3.15;;;;;;;;;;10432453;28;20203;-70
2022/11/06 22:00:13;;;;;;;5.53;3.72;;;;;;;;;;10436481;28;20238;-71
2022/11/06 22:05:17;;;;;;;4.10;3.70;;;;;;;;;;10419396;28;20210;-71
2022/11/06 22:10:18;;;;;;;4.25;3.88;;;;;;;;;;10414860;28;20225;-71
2022/11/06 22:15:19;;;;;;;4.25;3.90;;;;;;;;;;10402485;28;20290;-71
2022/11/06 22:20:20;;;;;;;5.97;4.25;;;;;;;;;;10416712;28;20751;-71
2022/11/06 22:25:21;;;;;;;3.90;3.63;;;;;;;;;;10453095;28;20287;-71
2022/11/06 22:30:22;;;;;;;4.43;4.03;;;;;;;;;;10433934;28;20701;-71
2022/11/06 22:35:23;;;;;;;3.33;3.03;;;;;;;;;;10438641;28;20217;-71
2022/11/06 22:40:25;;;;;;;3.92;3.53;;;;;;;;;;10435158;28;20215;-71
2022/11/06 22:45:26;;;;;;;4.85;3.90;;;;;;;;;;10452399;28;20226;-71
2022/11/06 22:50:27;;;;;;;4.03;3.72;;;;;;;;;;10450321;28;20246;-72
2022/11/06 22:55:28;;;;;;;3.85;3.45;;;;;;;;;;10454836;28;20219;-71
2022/11/06 23:00:29;;;;;;;4.00;3.70;;;;;;;;;;10452062;28;20314;-71
2022/11/06 23:05:31;;;;;;;4.55;4.10;;;;;;;;;;10440888;28;20223;-71
2022/11/06 23:10:33;;;;;;;4.70;3.90;;;;;;;;;;10439425;28;20223;-70
2022/11/06 23:15:35;;;;;;;5.90;4.30;;;;;;;;;;10438550;28;20216;-70
2022/11/06 23:20:36;;;;;;;4.00;3.63;;;;;;;;;;10454893;28;20309;-71
2022/11/06 23:25:37;;;;;;;3.78;3.42;;;;;;;;;;10438163;28;20226;-71
2022/11/06 23:30:38;;;;;;;5.65;3.97;;;;;;;;;;10437258;28;20215;-71
2022/11/06 23:35:39;;;;;;;4.10;3.53;;;;;;;;;;10439854;28;20238;-71
2022/11/06 23:40:41;;;;;;;4.00;3.70;;;;;;;;;;10399934;28;20223;-71
2022/11/06 23:45:48;;;;;;;7.15;4.05;;;;;;;;;;10420593;28;20221;-71
2022/11/06 23:50:49;;;;;;;4.80;4.10;;;;;;;;;;10438652;28;20217;-70
2022/11/06 23:55:50;;;;;;;4.47;4.05;;;;;;;;;;10436741;28;20667;-70
